sensor_id;sensor_type;location;lat;lon;timestamp;temperature;humidity
10662;DHT22;5379;51.034;7.006;2023-03-01T00:01:08;3.40;95.10
10662;DHT22;5379;51.034;7.006;2023-03-01T00:03:37;3.40;95.20
10662;DHT22;5379;51.034;7.006;2023-03-01T00:06:04;3.30;95.20
10662;DHT22;5379;51.034;7.006;2023-03-01T00:08:32;3.20;95.50
10662;DHT22;5379;51.034;7.006;2023-03-01T00:11:04;3.20;95.40
10662;DHT22;5379;51.034;7.006;2023-03-01T00:13:32;3.30;95.50
10662;DHT22;5379;51.034;7.006;2023-03-01T00:16:01;3.20;95.90
10662;DHT22;5379;51.034;7.006;2023-03-01T00:18:28;3.20;95.70
10662;DHT22;5379;51.034;7.006;2023-03-01T00:20:57;3.40;95.90
10662;DHT22;5379;51.034;7.006;2023-03-01T00:23:25;3.50;95.60
10662;DHT22;5379;51.034;7.006;2023-03-01T00:25:52;3.40;95.00
10662;DHT22;5379;51.034;7.006;2023-03-01T00:28:20;3.30;95.10
10662;DHT22;5379;51.034;7.006;2023-03-01T00:30:47;3.30;95.20
10662;DHT22;5379;51.034;7.006;2023-03-01T00:33:14;3.30;95.10
10662;DHT22;5379;51.034;7.006;2023-03-01T00:35:41;3.30;95.10
10662;DHT22;5379;51.034;7.006;2023-03-01T00:38:09;3.20;95.00
10662;DHT22;5379;51.034;7.006;2023-03-01T00:40:37;3.30;95.20
10662;DHT22;5379;51.034;7.006;2023-03-01T00:43:04;3.40;94.80
10662;DHT22;5379;51.034;7.006;2023-03-01T00:45:32;3.40;94.90
10662;DHT22;5379;51.034;7.006;2023-03-01T00:47:59;3.40;94.80
10662;DHT22;5379;51.034;7.006;2023-03-01T00:50:26;3.40;94.90
10662;DHT22;5379;51.034;7.006;2023-03-01T00:52:54;3.40;94.60
10662;DHT22;5379;51.034;7.006;2023-03-01T00:55:23;3.30;94.50
10662;DHT22;5379;51.034;7.006;2023-03-01T00:57:50;3.40;94.70
10662;DHT22;5379;51.034;7.006;2023-03-01T05:32:00;1.10;97.80
10662;DHT22;5379;51.034;7.006;2023-03-01T05:34:30;1.20;98.00
10662;DHT22;5379;51.034;7.006;2023-03-01T05:36:57;1.10;97.80
10662;DHT22;5379;51.034;7.006;2023-03-01T05:39:26;1.30;98.00
10662;DHT22;5379;51.034;7.006;2023-03-01T05:41:54;1.10;97.90
10662;DHT22;5379;51.034;7.006;2023-03-01T05:44:21;1.10;98.00
10662;DHT22;5379;51.034;7.006;2023-03-01T05:46:48;1.10;97.80
10662;DHT22;5379;51.034;7.006;2023-03-01T05:49:17;1.10;97.80
10662;DHT22;5379;51.034;7.006;2023-03-01T05:51:49;1.10;97.80
10662;DHT22;5379;51.034;7.006;2023-03-01T05:54:16;1.10;97.90
10662;DHT22;5379;51.034;7.006;2023-03-01T05:56:43;1.10;97.80
10662;DHT22;5379;51.034;7.006;2023-03-01T05:59:11;1.20;97.80
10662;DHT22;5379;51.034;7.006;2023-03-01T06:01:39;1.20;97.70
10662;DHT22;5379;51.034;7.006;2023-03-01T06:04:06;1.20;97.30
10662;DHT22;5379;51.034;7.006;2023-03-01T06:06:35;1.30;97.40
10662;DHT22;5379;51.034;7.006;2023-03-01T06:09:03;1.20;97.40
10662;DHT22;5379;51.034;7.006;2023-03-01T06:11:33;1.20;97.50
10662;DHT22;5379;51.034;7.006;2023-03-01T06:14:00;1.20;97.40
10662;DHT22;5379;51.034;7.006;2023-03-01T06:16:27;1.20;97.30
10662;DHT22;5379;51.034;7.006;2023-03-01T06:18:54;1.20;97.40
10662;DHT22;5379;51.034;7.006;2023-03-01T06:21:21;1.20;97.40
10662;DHT22;5379;51.034;7.006;2023-03-01T06:23:50;1.20;97.60
10662;DHT22;5379;51.034;7.006;2023-03-01T06:26:17;1.30;97.40
10662;DHT22;5379;51.034;7.006;2023-03-01T06:28:44;1.10;97.30
10662;DHT22;5379;51.034;7.006;2023-03-01T06:31:12;1.20;97.70
10662;DHT22;5379;51.034;7.006;2023-03-01T06:33:39;1.10;97.30
10662;DHT22;5379;51.034;7.006;2023-03-01T06:36:07;1.10;97.50
10662;DHT22;5379;51.034;7.006;2023-03-01T06:38:35;1.20;97.70
10662;DHT22;5379;51.034;7.006;2023-03-01T06:41:03;1.20;97.60
10662;DHT22;5379;51.034;7.006;2023-03-01T06:43:30;1.30;97.80
10662;DHT22;5379;51.034;7.006;2023-03-01T06:45:57;1.30;97.80
10662;DHT22;5379;51.034;7.006;2023-03-01T06:48:24;1.40;97.80
10662;DHT22;5379;51.034;7.006;2023-03-01T06:50:51;1.40;97.70
10662;DHT22;5379;51.034;7.006;2023-03-01T06:53:18;1.40;97.70
10662;DHT22;5379;51.034;7.006;2023-03-01T06:55:45;1.50;97.80
10662;DHT22;5379;51.034;7.006;2023-03-01T06:58:13;1.50;97.60
10662;DHT22;5379;51.034;7.006;2023-03-01T07:00:40;1.60;97.60
10662;DHT22;5379;51.034;7.006;2023-03-01T07:03:09;1.70;97.60
10662;DHT22;5379;51.034;7.006;2023-03-01T07:05:36;1.70;97.50
10662;DHT22;5379;51.034;7.006;2023-03-01T07:08:02;1.70;97.50
10662;DHT22;5379;51.034;7.006;2023-03-01T07:10:29;1.70;97.50
10662;DHT22;5379;51.034;7.006;2023-03-01T07:12:57;1.70;97.40
10662;DHT22;5379;51.034;7.006;2023-03-01T07:15:26;1.70;97.40
10662;DHT22;5379;51.034;7.006;2023-03-01T07:17:53;1.80;97.30
10662;DHT22;5379;51.034;7.006;2023-03-01T07:20:21;1.80;97.20
10662;DHT22;5379;51.034;7.006;2023-03-01T07:22:50;1.90;97.20
10662;DHT22;5379;51.034;7.006;2023-03-01T07:25:17;1.90;97.30
10662;DHT22;5379;51.034;7.006;2023-03-01T07:27:44;2.00;97.30
10662;DHT22;5379;51.034;7.006;2023-03-01T07:30:15;3.20;97.80
10662;DHT22;5379;51.034;7.006;2023-03-01T07:32:44;2.20;97.20
10662;DHT22;5379;51.034;7.006;2023-03-01T07:35:11;2.40;97.10
10662;DHT22;5379;51.034;7.006;2023-03-01T07:37:38;2.50;97.00
10662;DHT22;5379;51.034;7.006;2023-03-01T07:40:06;2.50;96.80
10662;DHT22;5379;51.034;7.006;2023-03-01T07:42:33;2.60;97.20
10662;DHT22;5379;51.034;7.006;2023-03-01T07:45:00;2.60;96.90
10662;DHT22;5379;51.034;7.006;2023-03-01T07:47:27;2.70;97.20
10662;DHT22;5379;51.034;7.006;2023-03-01T07:49:55;2.70;96.40
10662;DHT22;5379;51.034;7.006;2023-03-01T07:52:22;3.00;96.60
10662;DHT22;5379;51.034;7.006;2023-03-01T07:54:49;3.10;96.60
10662;DHT22;5379;51.034;7.006;2023-03-01T07:57:16;3.50;95.80
10662;DHT22;5379;51.034;7.006;2023-03-01T07:59:43;3.70;95.30
10662;DHT22;5379;51.034;7.006;2023-03-01T08:02:10;3.70;94.80
10662;DHT22;5379;51.034;7.006;2023-03-01T08:04:37;3.80;95.30
10662;DHT22;5379;51.034;7.006;2023-03-01T08:07:06;4.10;94.80
10662;DHT22;5379;51.034;7.006;2023-03-01T08:09:34;4.40;94.50
10662;DHT22;5379;51.034;7.006;2023-03-01T08:12:02;4.60;94.30
10662;DHT22;5379;51.034;7.006;2023-03-01T08:14:30;4.50;93.50
10662;DHT22;5379;51.034;7.006;2023-03-01T08:16:57;4.20;93.50
10662;DHT22;5379;51.034;7.006;2023-03-01T08:19:24;4.50;94.60
10662;DHT22;5379;51.034;7.006;2023-03-01T08:21:51;4.60;93.90
10662;DHT22;5379;51.034;7.006;2023-03-01T08:24:19;4.70;93.80
10662;DHT22;5379;51.034;7.006;2023-03-01T08:26:46;4.80;94.00
10662;DHT22;5379;51.034;7.006;2023-03-01T08:29:13;4.90;93.90
10662;DHT22;5379;51.034;7.006;2023-03-01T08:31:40;4.90;93.10
10662;DHT22;5379;51.034;7.006;2023-03-01T08:34:09;5.10;94.80
10662;DHT22;5379;51.034;7.006;2023-03-01T08:36:37;5.40;95.70
10662;DHT22;5379;51.034;7.006;2023-03-01T08:39:06;6.10;92.20
10662;DHT22;5379;51.034;7.006;2023-03-01T08:41:34;6.00;91.80
10662;DHT22;5379;51.034;7.006;2023-03-01T08:44:02;5.90;91.40
10662;DHT22;5379;51.034;7.006;2023-03-01T08:46:31;5.70;91.70
10662;DHT22;5379;51.034;7.006;2023-03-01T08:48:59;5.50;92.30
10662;DHT22;5379;51.034;7.006;2023-03-01T08:51:26;5.50;92.50
10662;DHT22;5379;51.034;7.006;2023-03-01T08:53:54;5.50;92.10
10662;DHT22;5379;51.034;7.006;2023-03-01T08:56:21;5.70;93.00
10662;DHT22;5379;51.034;7.006;2023-03-01T08:58:49;5.70;92.20
10662;DHT22;5379;51.034;7.006;2023-03-01T09:01:18;5.90;92.90
10662;DHT22;5379;51.034;7.006;2023-03-01T09:03:46;6.20;92.10
10662;DHT22;5379;51.034;7.006;2023-03-01T09:06:13;6.50;92.40
10662;DHT22;5379;51.034;7.006;2023-03-01T09:08:42;6.70;90.80
10662;DHT22;5379;51.034;7.006;2023-03-01T09:11:12;6.40;91.30
10662;DHT22;5379;51.034;7.006;2023-03-01T09:13:40;5.90;91.20
10662;DHT22;5379;51.034;7.006;2023-03-01T09:16:10;5.60;91.60
10662;DHT22;5379;51.034;7.006;2023-03-01T09:18:37;6.40;92.40
10662;DHT22;5379;51.034;7.006;2023-03-01T09:21:06;6.80;91.60
10662;DHT22;5379;51.034;7.006;2023-03-01T09:23:34;6.80;90.40
10662;DHT22;5379;51.034;7.006;2023-03-01T09:26:02;6.60;92.30
10662;DHT22;5379;51.034;7.006;2023-03-01T09:28:29;6.70;91.20
10662;DHT22;5379;51.034;7.006;2023-03-01T09:30:58;6.70;91.00
10662;DHT22;5379;51.034;7.006;2023-03-01T09:33:28;6.90;90.40
10662;DHT22;5379;51.034;7.006;2023-03-01T09:35:58;6.70;90.70
10662;DHT22;5379;51.034;7.006;2023-03-01T09:38:26;6.70;91.30
10662;DHT22;5379;51.034;7.006;2023-03-01T09:40:53;6.80;90.50
10662;DHT22;5379;51.034;7.006;2023-03-01T09:43:26;7.00;90.70
10662;DHT22;5379;51.034;7.006;2023-03-01T09:45:59;7.20;90.10
10662;DHT22;5379;51.034;7.006;2023-03-01T09:48:38;7.40;91.00
10662;DHT22;5379;51.034;7.006;2023-03-01T09:51:14;7.50;89.20
10662;DHT22;5379;51.034;7.006;2023-03-01T09:53:42;7.50;89.10
10662;DHT22;5379;51.034;7.006;2023-03-01T09:56:17;7.40;90.10
10662;DHT22;5379;51.034;7.006;2023-03-01T09:58:51;7.40;90.10
10662;DHT22;5379;51.034;7.006;2023-03-01T10:01:28;7.40;89.50
10662;DHT22;5379;51.034;7.006;2023-03-01T10:04:24;7.70;91.50
10662;DHT22;5379;51.034;7.006;2023-03-01T10:07:03;7.30;88.30
10662;DHT22;5379;51.034;7.006;2023-03-01T10:09:34;7.60;88.00
10662;DHT22;5379;51.034;7.006;2023-03-01T10:12:07;7.80;88.30
10662;DHT22;5379;51.034;7.006;2023-03-01T10:14:38;7.90;88.20
10662;DHT22;5379;51.034;7.006;2023-03-01T10:17:12;7.80;87.40
10662;DHT22;5379;51.034;7.006;2023-03-01T10:19:42;7.70;89.30
10662;DHT22;5379;51.034;7.006;2023-03-01T10:22:13;8.00;90.80
10662;DHT22;5379;51.034;7.006;2023-03-01T10:24:42;7.90;88.00
10662;DHT22;5379;51.034;7.006;2023-03-01T10:27:16;7.80;90.00
10662;DHT22;5379;51.034;7.006;2023-03-01T10:29:48;7.90;88.50
10662;DHT22;5379;51.034;7.006;2023-03-01T10:32:17;7.60;86.40
10662;DHT22;5379;51.034;7.006;2023-03-01T10:34:45;7.10;87.30
10662;DHT22;5379;51.034;7.006;2023-03-01T10:37:15;6.90;89.90
10662;DHT22;5379;51.034;7.006;2023-03-01T10:40:02;6.90;89.20
10662;DHT22;5379;51.034;7.006;2023-03-01T10:42:35;7.30;88.70
10662;DHT22;5379;51.034;7.006;2023-03-01T10:45:22;7.40;89.30
10662;DHT22;5379;51.034;7.006;2023-03-01T10:48:03;7.20;89.20
10662;DHT22;5379;51.034;7.006;2023-03-01T10:50:32;7.10;89.10
10662;DHT22;5379;51.034;7.006;2023-03-01T10:53:01;6.90;89.30
10662;DHT22;5379;51.034;7.006;2023-03-01T10:55:33;6.90;88.90
10662;DHT22;5379;51.034;7.006;2023-03-01T10:58:16;7.40;89.00
10662;DHT22;5379;51.034;7.006;2023-03-01T11:00:49;7.80;88.00
10662;DHT22;5379;51.034;7.006;2023-03-01T11:03:19;7.40;86.90
10662;DHT22;5379;51.034;7.006;2023-03-01T11:06:04;7.30;88.30
10662;DHT22;5379;51.034;7.006;2023-03-01T11:08:37;7.20;89.50
10662;DHT22;5379;51.034;7.006;2023-03-01T11:11:13;7.20;87.80
10662;DHT22;5379;51.034;7.006;2023-03-01T11:13:51;7.30;87.70
10662;DHT22;5379;51.034;7.006;2023-03-01T11:16:27;7.30;88.40
10662;DHT22;5379;51.034;7.006;2023-03-01T11:19:03;7.50;87.70
10662;DHT22;5379;51.034;7.006;2023-03-01T11:21:33;7.50;88.30
10662;DHT22;5379;51.034;7.006;2023-03-01T11:24:03;7.70;87.90
10662;DHT22;5379;51.034;7.006;2023-03-01T11:26:35;7.80;87.90
10662;DHT22;5379;51.034;7.006;2023-03-01T11:29:16;8.10;89.30
10662;DHT22;5379;51.034;7.006;2023-03-01T11:31:44;8.10;87.30
10662;DHT22;5379;51.034;7.006;2023-03-01T11:34:16;8.10;87.50
10662;DHT22;5379;51.034;7.006;2023-03-01T11:36:51;8.40;88.70
10662;DHT22;5379;51.034;7.006;2023-03-01T11:39:25;8.60;86.40
10662;DHT22;5379;51.034;7.006;2023-03-01T11:42:02;8.60;87.10
10662;DHT22;5379;51.034;7.006;2023-03-01T11:44:34;8.90;87.80
10662;DHT22;5379;51.034;7.006;2023-03-01T11:47:19;8.60;85.80
10662;DHT22;5379;51.034;7.006;2023-03-01T11:50:02;8.30;86.40
10662;DHT22;5379;51.034;7.006;2023-03-01T11:52:43;8.20;87.50
10662;DHT22;5379;51.034;7.006;2023-03-01T11:55:28;8.60;88.30
10662;DHT22;5379;51.034;7.006;2023-03-01T11:58:22;8.70;86.90
10662;DHT22;5379;51.034;7.006;2023-03-01T12:01:24;8.70;86.20
10662;DHT22;5379;51.034;7.006;2023-03-01T12:04:26;8.50;86.40
10662;DHT22;5379;51.034;7.006;2023-03-01T12:07:00;8.70;87.10
10662;DHT22;5379;51.034;7.006;2023-03-01T12:09:38;9.10;86.00
10662;DHT22;5379;51.034;7.006;2023-03-01T12:12:30;9.10;85.30
10662;DHT22;5379;51.034;7.006;2023-03-01T12:15:13;9.10;85.40
10662;DHT22;5379;51.034;7.006;2023-03-01T12:18:03;9.20;86.10
10662;DHT22;5379;51.034;7.006;2023-03-01T12:20:40;9.30;84.60
10662;DHT22;5379;51.034;7.006;2023-03-01T12:23:36;9.00;83.30
10662;DHT22;5379;51.034;7.006;2023-03-01T12:26:11;8.80;83.50
10662;DHT22;5379;51.034;7.006;2023-03-01T12:28:55;8.80;84.00
10662;DHT22;5379;51.034;7.006;2023-03-01T12:31:42;8.90;84.80
10662;DHT22;5379;51.034;7.006;2023-03-01T12:34:24;8.70;84.00
10662;DHT22;5379;51.034;7.006;2023-03-01T12:37:12;9.00;83.50
10662;DHT22;5379;51.034;7.006;2023-03-01T12:39:52;9.10;83.90
10662;DHT22;5379;51.034;7.006;2023-03-01T12:42:29;9.10;83.40
10662;DHT22;5379;51.034;7.006;2023-03-01T12:45:25;9.30;84.60
10662;DHT22;5379;51.034;7.006;2023-03-01T12:48:09;9.20;84.00
10662;DHT22;5379;51.034;7.006;2023-03-01T12:50:44;9.30;83.90
10662;DHT22;5379;51.034;7.006;2023-03-01T12:53:22;9.40;83.90
10662;DHT22;5379;51.034;7.006;2023-03-01T12:55:51;9.40;83.20
10662;DHT22;5379;51.034;7.006;2023-03-01T12:58:25;9.30;82.90
10662;DHT22;5379;51.034;7.006;2023-03-01T13:01:08;9.50;82.70
10662;DHT22;5379;51.034;7.006;2023-03-01T13:03:55;9.60;82.20
10662;DHT22;5379;51.034;7.006;2023-03-01T13:06:27;9.70;81.60
10662;DHT22;5379;51.034;7.006;2023-03-01T13:09:00;9.50;80.90
10662;DHT22;5379;51.034;7.006;2023-03-01T13:11:30;9.50;81.60
10662;DHT22;5379;51.034;7.006;2023-03-01T13:16:58;9.50;82.50
10662;DHT22;5379;51.034;7.006;2023-03-01T13:19:27;8.20;82.50
10662;DHT22;5379;51.034;7.006;2023-03-01T13:21:55;9.50;81.00
10662;DHT22;5379;51.034;7.006;2023-03-01T13:24:25;9.40;82.20
10662;DHT22;5379;51.034;7.006;2023-03-01T13:27:21;9.70;81.60
10662;DHT22;5379;51.034;7.006;2023-03-01T13:29:52;9.50;81.90
10662;DHT22;5379;51.034;7.006;2023-03-01T13:32:33;10.50;79.60
10662;DHT22;5379;51.034;7.006;2023-03-01T13:35:42;10.60;90.10
10662;DHT22;5379;51.034;7.006;2023-03-01T13:38:37;10.60;78.90
10662;DHT22;5379;51.034;7.006;2023-03-01T13:41:05;10.20;77.30
10662;DHT22;5379;51.034;7.006;2023-03-01T13:43:34;10.00;77.70
10662;DHT22;5379;51.034;7.006;2023-03-01T13:46:16;10.00;78.40
10662;DHT22;5379;51.034;7.006;2023-03-01T13:48:56;10.00;78.70
10662;DHT22;5379;51.034;7.006;2023-03-01T13:51:31;10.20;80.70
10662;DHT22;5379;51.034;7.006;2023-03-01T13:54:00;10.10;78.30
10662;DHT22;5379;51.034;7.006;2023-03-01T13:56:28;10.20;78.20
10662;DHT22;5379;51.034;7.006;2023-03-01T13:59:02;10.30;79.50
10662;DHT22;5379;51.034;7.006;2023-03-01T14:01:32;10.30;81.60
10662;DHT22;5379;51.034;7.006;2023-03-01T14:04:01;10.30;80.70
10662;DHT22;5379;51.034;7.006;2023-03-01T14:06:30;10.20;81.50
10662;DHT22;5379;51.034;7.006;2023-03-01T14:09:08;9.90;83.30
10662;DHT22;5379;51.034;7.006;2023-03-01T14:14:52;9.90;85.20
10662;DHT22;5379;51.034;7.006;2023-03-01T14:17:41;9.80;85.10
10662;DHT22;5379;51.034;7.006;2023-03-01T14:20:17;9.70;87.40
10662;DHT22;5379;51.034;7.006;2023-03-01T14:22:45;9.70;85.60
10662;DHT22;5379;51.034;7.006;2023-03-01T14:25:24;9.60;86.40
10662;DHT22;5379;51.034;7.006;2023-03-01T14:27:57;9.30;86.80
10662;DHT22;5379;51.034;7.006;2023-03-01T14:30:26;9.40;86.70
10662;DHT22;5379;51.034;7.006;2023-03-01T14:32:55;9.40;87.10
10662;DHT22;5379;51.034;7.006;2023-03-01T14:35:25;9.20;87.30
10662;DHT22;5379;51.034;7.006;2023-03-01T14:37:52;9.10;87.90
10662;DHT22;5379;51.034;7.006;2023-03-01T14:40:53;9.20;88.40
10662;DHT22;5379;51.034;7.006;2023-03-01T14:43:58;9.40;88.50
10662;DHT22;5379;51.034;7.006;2023-03-01T14:47:01;10.80;88.30
10662;DHT22;5379;51.034;7.006;2023-03-01T14:49:59;8.60;87.80
10662;DHT22;5379;51.034;7.006;2023-03-01T14:52:34;9.10;88.00
10662;DHT22;5379;51.034;7.006;2023-03-01T14:55:04;9.30;88.50
10662;DHT22;5379;51.034;7.006;2023-03-01T14:57:31;9.20;87.90
10662;DHT22;5379;51.034;7.006;2023-03-01T15:00:03;9.00;88.60
10662;DHT22;5379;51.034;7.006;2023-03-01T15:02:33;9.00;89.00
10662;DHT22;5379;51.034;7.006;2023-03-01T15:05:03;9.10;88.40
10662;DHT22;5379;51.034;7.006;2023-03-01T15:07:35;9.00;89.00
10662;DHT22;5379;51.034;7.006;2023-03-01T15:10:07;9.00;88.50
10662;DHT22;5379;51.034;7.006;2023-03-01T15:13:11;9.30;88.90
10662;DHT22;5379;51.034;7.006;2023-03-01T15:15:41;9.30;88.10
10662;DHT22;5379;51.034;7.006;2023-03-01T15:18:20;9.20;88.30
10662;DHT22;5379;51.034;7.006;2023-03-01T15:21:13;9.20;87.60
10662;DHT22;5379;51.034;7.006;2023-03-01T15:23:50;9.10;87.80
10662;DHT22;5379;51.034;7.006;2023-03-01T15:26:29;9.20;88.30
10662;DHT22;5379;51.034;7.006;2023-03-01T15:28:59;9.40;86.70
10662;DHT22;5379;51.034;7.006;2023-03-01T15:31:28;9.30;85.40
10662;DHT22;5379;51.034;7.006;2023-03-01T15:34:22;9.40;86.30
10662;DHT22;5379;51.034;7.006;2023-03-01T15:36:51;9.50;91.40
10662;DHT22;5379;51.034;7.006;2023-03-01T15:39:40;9.50;85.50
10662;DHT22;5379;51.034;7.006;2023-03-01T15:42:10;9.20;85.20
10662;DHT22;5379;51.034;7.006;2023-03-01T15:44:39;9.70;91.90
10662;DHT22;5379;51.034;7.006;2023-03-01T15:47:25;9.80;86.40
10662;DHT22;5379;51.034;7.006;2023-03-01T15:49:54;9.60;86.10
10662;DHT22;5379;51.034;7.006;2023-03-01T15:52:24;9.30;86.00
10662;DHT22;5379;51.034;7.006;2023-03-01T15:54:57;9.20;86.40
10662;DHT22;5379;51.034;7.006;2023-03-01T15:57:24;9.40;86.50
10662;DHT22;5379;51.034;7.006;2023-03-01T15:59:51;9.50;87.20
10662;DHT22;5379;51.034;7.006;2023-03-01T16:02:17;9.40;86.10
10662;DHT22;5379;51.034;7.006;2023-03-01T16:04:46;9.50;86.60
10662;DHT22;5379;51.034;7.006;2023-03-01T16:07:14;9.60;86.40
10662;DHT22;5379;51.034;7.006;2023-03-01T16:09:41;9.40;85.10
10662;DHT22;5379;51.034;7.006;2023-03-01T16:12:14;9.40;85.40
10662;DHT22;5379;51.034;7.006;2023-03-01T16:14:41;9.20;87.40
10662;DHT22;5379;51.034;7.006;2023-03-01T16:17:08;10.00;85.50
10662;DHT22;5379;51.034;7.006;2023-03-01T16:19:41;10.00;84.10
10662;DHT22;5379;51.034;7.006;2023-03-01T16:22:17;9.90;85.50
10662;DHT22;5379;51.034;7.006;2023-03-01T16:24:50;9.80;85.10
10662;DHT22;5379;51.034;7.006;2023-03-01T16:27:18;9.70;85.20
10662;DHT22;5379;51.034;7.006;2023-03-01T16:29:46;9.70;86.10
10662;DHT22;5379;51.034;7.006;2023-03-01T16:32:14;9.80;85.20
10662;DHT22;5379;51.034;7.006;2023-03-01T16:34:48;9.60;85.10
10662;DHT22;5379;51.034;7.006;2023-03-01T16:37:16;8.70;84.40
10662;DHT22;5379;51.034;7.006;2023-03-01T16:39:44;9.70;86.10
10662;DHT22;5379;51.034;7.006;2023-03-01T16:42:11;9.40;84.70
10662;DHT22;5379;51.034;7.006;2023-03-01T16:44:39;9.40;85.50
10662;DHT22;5379;51.034;7.006;2023-03-01T16:47:06;9.20;85.00
10662;DHT22;5379;51.034;7.006;2023-03-01T16:49:45;9.00;85.50
10662;DHT22;5379;51.034;7.006;2023-03-01T16:52:12;9.00;88.60
10662;DHT22;5379;51.034;7.006;2023-03-01T16:54:42;9.20;85.40
10662;DHT22;5379;51.034;7.006;2023-03-01T16:57:11;9.00;89.60
10662;DHT22;5379;51.034;7.006;2023-03-01T16:59:47;9.00;86.20
10662;DHT22;5379;51.034;7.006;2023-03-01T17:02:16;9.50;86.70
10662;DHT22;5379;51.034;7.006;2023-03-01T17:04:45;8.80;86.00
10662;DHT22;5379;51.034;7.006;2023-03-01T17:07:18;8.80;86.40
10662;DHT22;5379;51.034;7.006;2023-03-01T17:09:45;8.50;86.00
10662;DHT22;5379;51.034;7.006;2023-03-01T17:12:12;8.60;86.70
10662;DHT22;5379;51.034;7.006;2023-03-01T17:14:40;8.50;86.40
10662;DHT22;5379;51.034;7.006;2023-03-01T17:17:09;8.50;86.50
10662;DHT22;5379;51.034;7.006;2023-03-01T17:19:37;8.50;86.40
10662;DHT22;5379;51.034;7.006;2023-03-01T17:22:07;8.50;86.80
10662;DHT22;5379;51.034;7.006;2023-03-01T17:25:00;8.30;85.80
10662;DHT22;5379;51.034;7.006;2023-03-01T17:31:26;8.30;86.40
10662;DHT22;5379;51.034;7.006;2023-03-01T17:34:06;8.30;87.50
10662;DHT22;5379;51.034;7.006;2023-03-01T17:36:46;8.80;87.70
10662;DHT22;5379;51.034;7.006;2023-03-01T17:39:41;8.20;87.20
10662;DHT22;5379;51.034;7.006;2023-03-01T17:42:11;8.10;87.20
10662;DHT22;5379;51.034;7.006;2023-03-01T17:44:46;8.40;87.70
10662;DHT22;5379;51.034;7.006;2023-03-01T17:47:31;8.30;87.30
10662;DHT22;5379;51.034;7.006;2023-03-01T17:50:11;8.20;86.70
10662;DHT22;5379;51.034;7.006;2023-03-01T17:52:49;8.20;86.60
10662;DHT22;5379;51.034;7.006;2023-03-01T17:55:25;8.20;86.70
10662;DHT22;5379;51.034;7.006;2023-03-01T17:58:07;8.30;87.70
10662;DHT22;5379;51.034;7.006;2023-03-01T18:00:50;9.10;87.60
10662;DHT22;5379;51.034;7.006;2023-03-01T18:03:28;8.30;87.60
10662;DHT22;5379;51.034;7.006;2023-03-01T18:06:23;8.20;87.00
10662;DHT22;5379;51.034;7.006;2023-03-01T18:08:53;8.30;86.70
10662;DHT22;5379;51.034;7.006;2023-03-01T18:11:22;8.20;86.90
10662;DHT22;5379;51.034;7.006;2023-03-01T18:13:53;8.10;87.50
10662;DHT22;5379;51.034;7.006;2023-03-01T18:16:23;8.00;87.20
10662;DHT22;5379;51.034;7.006;2023-03-01T18:18:59;7.80;87.40
10662;DHT22;5379;51.034;7.006;2023-03-01T18:21:35;7.80;88.00
10662;DHT22;5379;51.034;7.006;2023-03-01T18:24:05;7.50;87.70
10662;DHT22;5379;51.034;7.006;2023-03-01T18:26:33;7.50;88.40
10662;DHT22;5379;51.034;7.006;2023-03-01T18:29:05;7.70;88.20
10662;DHT22;5379;51.034;7.006;2023-03-01T18:31:35;7.90;88.80
10662;DHT22;5379;51.034;7.006;2023-03-01T18:34:10;7.80;88.20
10662;DHT22;5379;51.034;7.006;2023-03-01T18:36:41;7.80;88.20
10662;DHT22;5379;51.034;7.006;2023-03-01T18:39:43;7.90;88.10
10662;DHT22;5379;51.034;7.006;2023-03-01T18:42:46;8.10;88.20
10662;DHT22;5379;51.034;7.006;2023-03-01T18:45:55;7.80;88.30
10662;DHT22;5379;51.034;7.006;2023-03-01T18:48:45;7.60;88.70
10662;DHT22;5379;51.034;7.006;2023-03-01T18:51:26;7.60;89.10
10662;DHT22;5379;51.034;7.006;2023-03-01T18:57:18;7.60;89.50
10662;DHT22;5379;51.034;7.006;2023-03-01T19:00:06;7.70;89.70
10662;DHT22;5379;51.034;7.006;2023-03-01T19:02:33;7.80;89.80
10662;DHT22;5379;51.034;7.006;2023-03-01T19:05:00;7.80;89.40
10662;DHT22;5379;51.034;7.006;2023-03-01T19:07:27;7.80;89.90
10662;DHT22;5379;51.034;7.006;2023-03-01T19:09:54;7.80;89.40
10662;DHT22;5379;51.034;7.006;2023-03-01T19:12:23;7.80;89.30
10662;DHT22;5379;51.034;7.006;2023-03-01T19:14:49;7.70;89.10
10662;DHT22;5379;51.034;7.006;2023-03-01T19:17:16;7.70;89.40
10662;DHT22;5379;51.034;7.006;2023-03-01T19:19:44;7.70;89.40
10662;DHT22;5379;51.034;7.006;2023-03-01T19:22:11;7.70;89.40
10662;DHT22;5379;51.034;7.006;2023-03-01T19:24:38;7.60;89.90
10662;DHT22;5379;51.034;7.006;2023-03-01T19:27:05;7.60;90.00
10662;DHT22;5379;51.034;7.006;2023-03-01T19:29:33;7.50;90.00
10662;DHT22;5379;51.034;7.006;2023-03-01T19:32:00;7.40;90.10
10662;DHT22;5379;51.034;7.006;2023-03-01T19:34:27;7.30;90.30
10662;DHT22;5379;51.034;7.006;2023-03-01T19:36:54;7.10;90.50
10662;DHT22;5379;51.034;7.006;2023-03-01T19:39:21;7.10;90.40
10662;DHT22;5379;51.034;7.006;2023-03-01T19:41:48;7.10;90.30
10662;DHT22;5379;51.034;7.006;2023-03-01T19:44:15;7.10;90.50
10662;DHT22;5379;51.034;7.006;2023-03-01T19:46:43;7.10;90.60
10662;DHT22;5379;51.034;7.006;2023-03-01T19:49:10;7.20;90.70
10662;DHT22;5379;51.034;7.006;2023-03-01T19:51:37;7.10;90.80
10662;DHT22;5379;51.034;7.006;2023-03-01T19:54:05;7.00;90.80
10662;DHT22;5379;51.034;7.006;2023-03-01T19:56:32;7.00;91.00
10662;DHT22;5379;51.034;7.006;2023-03-01T19:58:59;6.90;90.90
10662;DHT22;5379;51.034;7.006;2023-03-01T20:01:28;6.80;91.00
10662;DHT22;5379;51.034;7.006;2023-03-01T20:03:59;6.70;91.20
10662;DHT22;5379;51.034;7.006;2023-03-01T20:06:26;6.60;91.40
10662;DHT22;5379;51.034;7.006;2023-03-01T20:08:54;6.50;91.40
10662;DHT22;5379;51.034;7.006;2023-03-01T20:11:21;6.50;91.40
10662;DHT22;5379;51.034;7.006;2023-03-01T20:13:48;6.50;91.40
10662;DHT22;5379;51.034;7.006;2023-03-01T20:16:17;6.50;91.50
10662;DHT22;5379;51.034;7.006;2023-03-01T20:18:45;6.50;91.60
10662;DHT22;5379;51.034;7.006;2023-03-01T20:21:14;6.50;91.70
10662;DHT22;5379;51.034;7.006;2023-03-01T20:23:43;6.40;91.80
10662;DHT22;5379;51.034;7.006;2023-03-01T20:26:11;6.30;91.70
10662;DHT22;5379;51.034;7.006;2023-03-01T20:28:41;6.30;91.60
10662;DHT22;5379;51.034;7.006;2023-03-01T20:31:10;6.40;91.40
10662;DHT22;5379;51.034;7.006;2023-03-01T20:33:37;6.40;91.50
10662;DHT22;5379;51.034;7.006;2023-03-01T20:36:05;6.40;91.40
10662;DHT22;5379;51.034;7.006;2023-03-01T20:38:34;6.50;91.50
10662;DHT22;5379;51.034;7.006;2023-03-01T20:41:03;6.50;91.40
10662;DHT22;5379;51.034;7.006;2023-03-01T20:43:30;6.50;91.60
10662;DHT22;5379;51.034;7.006;2023-03-01T20:45:57;6.40;91.50
10662;DHT22;5379;51.034;7.006;2023-03-01T20:48:24;6.30;91.70
10662;DHT22;5379;51.034;7.006;2023-03-01T20:50:51;6.30;91.70
10662;DHT22;5379;51.034;7.006;2023-03-01T20:53:18;6.20;92.10
10662;DHT22;5379;51.034;7.006;2023-03-01T20:55:47;5.20;91.20
10662;DHT22;5379;51.034;7.006;2023-03-01T20:58:14;6.20;91.60
10662;DHT22;5379;51.034;7.006;2023-03-01T21:00:41;6.10;91.80
10662;DHT22;5379;51.034;7.006;2023-03-01T21:03:08;6.10;91.70
10662;DHT22;5379;51.034;7.006;2023-03-01T21:05:35;5.90;91.90
10662;DHT22;5379;51.034;7.006;2023-03-01T21:08:02;5.90;91.90
10662;DHT22;5379;51.034;7.006;2023-03-01T21:10:29;5.90;92.00
10662;DHT22;5379;51.034;7.006;2023-03-01T21:12:57;5.70;91.90
10662;DHT22;5379;51.034;7.006;2023-03-01T21:15:24;5.60;92.10
10662;DHT22;5379;51.034;7.006;2023-03-01T21:17:51;5.60;92.10
10662;DHT22;5379;51.034;7.006;2023-03-01T21:20:18;5.70;92.50